sensor_id;sensor_type;location;lat;lon;timestamp;temperature;humidity
31369;DHT22;18004;48.416;10.066;2023-02-02T00:00:43;3.80;99.90
31369;DHT22;18004;48.416;10.066;2023-02-02T00:03:09;3.80;99.90
31369;DHT22;18004;48.416;10.066;2023-02-02T00:05:35;3.80;99.90
31369;DHT22;18004;48.416;10.066;2023-02-02T00:08:01;3.80;99.90
31369;DHT22;18004;48.416;10.066;2023-02-02T00:10:27;3.80;99.90
31369;DHT22;18004;48.416;10.066;2023-02-02T00:12:52;3.80;99.90
31369;DHT22;18004;48.416;10.066;2023-02-02T00:15:18;3.70;99.90
31369;DHT22;18004;48.416;10.066;2023-02-02T00:17:44;3.70;99.90
31369;DHT22;18004;48.416;10.066;2023-02-02T00:20:10;3.70;99.90
31369;DHT22;18004;48.416;10.066;2023-02-02T00:22:35;3.80;99.90
31369;DHT22;18004;48.416;10.066;2023-02-02T00:25:01;3.70;99.90
31369;DHT22;18004;48.416;10.066;2023-02-02T00:27:27;3.70;99.90
31369;DHT22;18004;48.416;10.066;2023-02-02T00:29:52;3.80;99.90
31369;DHT22;18004;48.416;10.066;2023-02-02T00:32:18;3.80;99.90
31369;DHT22;18004;48.416;10.066;2023-02-02T00:34:44;3.70;99.90
31369;DHT22;18004;48.416;10.066;2023-02-02T00:37:10;3.80;99.90
31369;DHT22;18004;48.416;10.066;2023-02-02T00:39:35;3.70;99.90
31369;DHT22;18004;48.416;10.066;2023-02-02T00:42:01;3.70;99.90
31369;DHT22;18004;48.416;10.066;2023-02-02T00:44:27;3.70;99.90
31369;DHT22;18004;48.416;10.066;2023-02-02T00:47:11;3.70;99.90
31369;DHT22;18004;48.416;10.066;2023-02-02T00:49:37;3.70;99.90
31369;DHT22;18004;48.416;10.066;2023-02-02T00:52:02;3.70;99.90
31369;DHT22;18004;48.416;10.066;2023-02-02T00:54:28;3.70;99.90
31369;DHT22;18004;48.416;10.066;2023-02-02T00:56:54;3.70;99.90
31369;DHT22;18004;48.416;10.066;2023-02-02T00:59:19;3.70;99.90
31369;DHT22;18004;48.416;10.066;2023-02-02T01:01:45;3.70;99.90
31369;DHT22;18004;48.416;10.066;2023-02-02T01:04:11;3.70;99.90
31369;DHT22;18004;48.416;10.066;2023-02-02T01:06:36;3.70;99.90
31369;DHT22;18004;48.416;10.066;2023-02-02T01:09:02;3.70;99.90
31369;DHT22;18004;48.416;10.066;2023-02-02T01:11:28;3.70;99.90
31369;DHT22;18004;48.416;10.066;2023-02-02T01:13:55;3.60;99.90
31369;DHT22;18004;48.416;10.066;2023-02-02T01:16:21;3.60;99.90
31369;DHT22;18004;48.416;10.066;2023-02-02T01:18:47;3.70;99.90
31369;DHT22;18004;48.416;10.066;2023-02-02T01:21:12;3.60;99.90
31369;DHT22;18004;48.416;10.066;2023-02-02T01:23:38;3.70;99.90
31369;DHT22;18004;48.416;10.066;2023-02-02T01:26:05;3.60;99.90
31369;DHT22;18004;48.416;10.066;2023-02-02T01:28:31;3.60;99.90
31369;DHT22;18004;48.416;10.066;2023-02-02T01:30:57;3.50;99.90
31369;DHT22;18004;48.416;10.066;2023-02-02T01:33:23;3.50;99.90
31369;DHT22;18004;48.416;10.066;2023-02-02T01:35:50;3.50;99.90
31369;DHT22;18004;48.416;10.066;2023-02-02T01:38:15;3.50;99.90
31369;DHT22;18004;48.416;10.066;2023-02-02T01:40:51;3.50;99.90
31369;DHT22;18004;48.416;10.066;2023-02-02T01:45:49;3.40;99.90
31369;DHT22;18004;48.416;10.066;2023-02-02T01:48:15;3.50;99.90
31369;DHT22;18004;48.416;10.066;2023-02-02T01:50:41;3.50;99.90
31369;DHT22;18004;48.416;10.066;2023-02-02T01:53:07;3.40;99.90
31369;DHT22;18004;48.416;10.066;2023-02-02T01:55:34;3.50;99.90
31369;DHT22;18004;48.416;10.066;2023-02-02T01:58:02;3.50;99.90
31369;DHT22;18004;48.416;10.066;2023-02-02T02:00:29;3.50;99.90
31369;DHT22;18004;48.416;10.066;2023-02-02T02:02:59;3.50;99.90
31369;DHT22;18004;48.416;10.066;2023-02-02T02:05:30;3.50;99.90
31369;DHT22;18004;48.416;10.066;2023-02-02T02:08:00;3.50;99.90
31369;DHT22;18004;48.416;10.066;2023-02-02T02:10:27;3.50;99.90
31369;DHT22;18004;48.416;10.066;2023-02-02T02:12:52;3.50;99.90
31369;DHT22;18004;48.416;10.066;2023-02-02T02:15:18;3.50;99.90
31369;DHT22;18004;48.416;10.066;2023-02-02T02:18:07;3.50;99.90
31369;DHT22;18004;48.416;10.066;2023-02-02T02:20:55;3.50;99.90
31369;DHT22;18004;48.416;10.066;2023-02-02T02:39:19;3.40;99.90
31369;DHT22;18004;48.416;10.066;2023-02-02T02:41:49;3.40;99.90
31369;DHT22;18004;48.416;10.066;2023-02-02T02:44:15;3.40;99.90
31369;DHT22;18004;48.416;10.066;2023-02-02T02:46:41;3.40;99.90
31369;DHT22;18004;48.416;10.066;2023-02-02T02:49:08;3.30;99.90
31369;DHT22;18004;48.416;10.066;2023-02-02T02:51:44;3.40;99.90
31369;DHT22;18004;48.416;10.066;2023-02-02T02:54:11;3.40;99.90
31369;DHT22;18004;48.416;10.066;2023-02-02T02:56:43;3.40;99.90
31369;DHT22;18004;48.416;10.066;2023-02-02T03:04:36;3.40;99.90
31369;DHT22;18004;48.416;10.066;2023-02-02T03:07:06;3.40;99.90
31369;DHT22;18004;48.416;10.066;2023-02-02T03:09:35;3.40;99.90
31369;DHT22;18004;48.416;10.066;2023-02-02T03:12:03;3.40;99.90
31369;DHT22;18004;48.416;10.066;2023-02-02T03:14:32;3.40;99.90
31369;DHT22;18004;48.416;10.066;2023-02-02T03:16:58;3.40;99.90
31369;DHT22;18004;48.416;10.066;2023-02-02T03:19:24;3.40;99.90
31369;DHT22;18004;48.416;10.066;2023-02-02T03:21:50;3.40;99.90
31369;DHT22;18004;48.416;10.066;2023-02-02T03:24:15;3.40;99.90
31369;DHT22;18004;48.416;10.066;2023-02-02T03:26:41;3.40;99.90
31369;DHT22;18004;48.416;10.066;2023-02-02T03:29:06;3.40;99.90
31369;DHT22;18004;48.416;10.066;2023-02-02T03:31:32;3.40;99.90
31369;DHT22;18004;48.416;10.066;2023-02-02T03:33:58;3.40;99.90
31369;DHT22;18004;48.416;10.066;2023-02-02T03:36:23;3.50;99.90
31369;DHT22;18004;48.416;10.066;2023-02-02T03:38:49;3.50;99.90
31369;DHT22;18004;48.416;10.066;2023-02-02T03:41:15;3.50;99.90
31369;DHT22;18004;48.416;10.066;2023-02-02T03:43:42;3.50;99.90
31369;DHT22;18004;48.416;10.066;2023-02-02T03:46:08;3.50;99.90
31369;DHT22;18004;48.416;10.066;2023-02-02T03:48:34;3.50;99.90
31369;DHT22;18004;48.416;10.066;2023-02-02T03:51:04;3.50;99.90
31369;DHT22;18004;48.416;10.066;2023-02-02T03:53:29;3.50;99.90
31369;DHT22;18004;48.416;10.066;2023-02-02T03:55:55;3.50;99.90
31369;DHT22;18004;48.416;10.066;2023-02-02T03:58:21;3.50;99.90
31369;DHT22;18004;48.416;10.066;2023-02-02T04:00:47;3.50;99.90
31369;DHT22;18004;48.416;10.066;2023-02-02T04:03:12;3.60;99.90
31369;DHT22;18004;48.416;10.066;2023-02-02T04:05:38;3.60;99.90
31369;DHT22;18004;48.416;10.066;2023-02-02T04:08:03;3.50;99.90
31369;DHT22;18004;48.416;10.066;2023-02-02T04:10:29;3.50;99.90
31369;DHT22;18004;48.416;10.066;2023-02-02T04:12:55;3.50;99.90
31369;DHT22;18004;48.416;10.066;2023-02-02T04:15:20;3.50;99.90
31369;DHT22;18004;48.416;10.066;2023-02-02T04:17:46;3.50;99.90
31369;DHT22;18004;48.416;10.066;2023-02-02T04:20:12;3.50;99.90
31369;DHT22;18004;48.416;10.066;2023-02-02T04:22:37;3.50;99.90
31369;DHT22;18004;48.416;10.066;2023-02-02T04:25:03;3.50;99.90
31369;DHT22;18004;48.416;10.066;2023-02-02T04:27:29;3.50;99.90
31369;DHT22;18004;48.416;10.066;2023-02-02T04:29:56;3.50;99.90
31369;DHT22;18004;48.416;10.066;2023-02-02T04:32:22;3.50;99.90
31369;DHT22;18004;48.416;10.066;2023-02-02T04:34:48;3.50;99.90
31369;DHT22;18004;48.416;10.066;2023-02-02T04:37:13;3.50;99.90
31369;DHT22;18004;48.416;10.066;2023-02-02T04:39:39;3.50;99.90
31369;DHT22;18004;48.416;10.066;2023-02-02T04:42:05;3.60;99.90
31369;DHT22;18004;48.416;10.066;2023-02-02T04:44:30;3.60;99.90
31369;DHT22;18004;48.416;10.066;2023-02-02T04:46:56;3.60;99.90
31369;DHT22;18004;48.416;10.066;2023-02-02T04:49:22;3.60;99.90
31369;DHT22;18004;48.416;10.066;2023-02-02T04:51:47;3.60;99.90
31369;DHT22;18004;48.416;10.066;2023-02-02T04:54:14;3.70;99.90
31369;DHT22;18004;48.416;10.066;2023-02-02T04:56:40;3.70;99.90
31369;DHT22;18004;48.416;10.066;2023-02-02T04:59:06;3.70;99.90
31369;DHT22;18004;48.416;10.066;2023-02-02T05:01:31;3.70;99.90
31369;DHT22;18004;48.416;10.066;2023-02-02T05:03:57;3.70;99.90
31369;DHT22;18004;48.416;10.066;2023-02-02T05:06:22;3.70;99.90
31369;DHT22;18004;48.416;10.066;2023-02-02T05:08:48;3.80;99.90
31369;DHT22;18004;48.416;10.066;2023-02-02T05:11:15;3.70;99.90
31369;DHT22;18004;48.416;10.066;2023-02-02T05:13:45;3.70;99.90
31369;DHT22;18004;48.416;10.066;2023-02-02T05:16:12;3.80;99.90
31369;DHT22;18004;48.416;10.066;2023-02-02T05:18:37;3.80;99.90
31369;DHT22;18004;48.416;10.066;2023-02-02T05:21:03;3.80;99.90
31369;DHT22;18004;48.416;10.066;2023-02-02T05:23:30;3.90;99.90
31369;DHT22;18004;48.416;10.066;2023-02-02T05:25:56;3.90;99.90
31369;DHT22;18004;48.416;10.066;2023-02-02T05:28:22;3.90;99.90
31369;DHT22;18004;48.416;10.066;2023-02-02T05:30:48;3.90;99.90
31369;DHT22;18004;48.416;10.066;2023-02-02T05:33:14;3.90;99.90
31369;DHT22;18004;48.416;10.066;2023-02-02T05:35:40;3.80;99.90
31369;DHT22;18004;48.416;10.066;2023-02-02T05:38:05;3.90;99.90
31369;DHT22;18004;48.416;10.066;2023-02-02T05:40:31;3.90;99.90
31369;DHT22;18004;48.416;10.066;2023-02-02T05:42:56;3.90;99.90
31369;DHT22;18004;48.416;10.066;2023-02-02T05:45:22;3.90;99.90
31369;DHT22;18004;48.416;10.066;2023-02-02T05:47:48;3.90;99.90
31369;DHT22;18004;48.416;10.066;2023-02-02T05:50:14;3.90;99.90
31369;DHT22;18004;48.416;10.066;2023-02-02T05:52:40;4.00;99.90
31369;DHT22;18004;48.416;10.066;2023-02-02T05:55:06;4.10;99.90
31369;DHT22;18004;48.416;10.066;2023-02-02T05:57:32;4.30;99.90
31369;DHT22;18004;48.416;10.066;2023-02-02T05:59:58;4.30;99.90
31369;DHT22;18004;48.416;10.066;2023-02-02T06:02:23;4.30;99.90
31369;DHT22;18004;48.416;10.066;2023-02-02T06:04:49;4.30;99.90
31369;DHT22;18004;48.416;10.066;2023-02-02T06:07:15;4.30;99.90
31369;DHT22;18004;48.416;10.066;2023-02-02T06:09:40;4.30;99.90
31369;DHT22;18004;48.416;10.066;2023-02-02T06:12:06;4.30;99.90
31369;DHT22;18004;48.416;10.066;2023-02-02T06:14:32;4.20;99.90
31369;DHT22;18004;48.416;10.066;2023-02-02T06:16:57;4.20;99.90
31369;DHT22;18004;48.416;10.066;2023-02-02T06:19:23;4.20;99.90
31369;DHT22;18004;48.416;10.066;2023-02-02T06:21:49;4.10;99.90
31369;DHT22;18004;48.416;10.066;2023-02-02T06:24:14;4.10;99.90
31369;DHT22;18004;48.416;10.066;2023-02-02T06:26:40;4.10;99.90
31369;DHT22;18004;48.416;10.066;2023-02-02T06:29:06;4.10;99.90
31369;DHT22;18004;48.416;10.066;2023-02-02T06:31:32;4.20;99.90
31369;DHT22;18004;48.416;10.066;2023-02-02T06:33:58;4.20;99.90
31369;DHT22;18004;48.416;10.066;2023-02-02T06:36:24;4.20;99.90
31369;DHT22;18004;48.416;10.066;2023-02-02T06:38:51;4.20;99.90
31369;DHT22;18004;48.416;10.066;2023-02-02T06:41:17;4.20;99.90
31369;DHT22;18004;48.416;10.066;2023-02-02T06:43:43;4.20;99.90
31369;DHT22;18004;48.416;10.066;2023-02-02T06:46:08;4.20;99.90
31369;DHT22;18004;48.416;10.066;2023-02-02T06:48:34;4.20;99.90
31369;DHT22;18004;48.416;10.066;2023-02-02T06:51:00;4.10;99.90
31369;DHT22;18004;48.416;10.066;2023-02-02T06:53:26;4.10;99.90
31369;DHT22;18004;48.416;10.066;2023-02-02T06:55:55;4.10;99.90
31369;DHT22;18004;48.416;10.066;2023-02-02T06:58:21;4.10;99.90
31369;DHT22;18004;48.416;10.066;2023-02-02T07:00:46;4.20;99.90
31369;DHT22;18004;48.416;10.066;2023-02-02T07:03:13;4.10;99.90
31369;DHT22;18004;48.416;10.066;2023-02-02T07:05:39;4.20;99.90
31369;DHT22;18004;48.416;10.066;2023-02-02T07:08:04;4.20;99.90
31369;DHT22;18004;48.416;10.066;2023-02-02T07:10:30;4.20;99.90
31369;DHT22;18004;48.416;10.066;2023-02-02T07:12:56;4.20;99.90
31369;DHT22;18004;48.416;10.066;2023-02-02T07:15:21;4.20;99.90
31369;DHT22;18004;48.416;10.066;2023-02-02T07:17:47;4.20;99.90
31369;DHT22;18004;48.416;10.066;2023-02-02T07:20:12;4.20;99.90
31369;DHT22;18004;48.416;10.066;2023-02-02T07:22:38;4.10;99.90
31369;DHT22;18004;48.416;10.066;2023-02-02T07:25:12;4.10;99.90
31369;DHT22;18004;48.416;10.066;2023-02-02T07:27:37;4.10;99.90
31369;DHT22;18004;48.416;10.066;2023-02-02T07:30:03;4.10;99.90
31369;DHT22;18004;48.416;10.066;2023-02-02T07:32:29;4.10;99.90
31369;DHT22;18004;48.416;10.066;2023-02-02T07:34:57;4.10;99.90
31369;DHT22;18004;48.416;10.066;2023-02-02T07:37:22;4.10;99.90
31369;DHT22;18004;48.416;10.066;2023-02-02T07:39:48;4.10;99.90
31369;DHT22;18004;48.416;10.066;2023-02-02T07:42:14;4.10;99.90
31369;DHT22;18004;48.416;10.066;2023-02-02T07:44:39;4.00;99.90
31369;DHT22;18004;48.416;10.066;2023-02-02T07:47:05;4.00;99.90
31369;DHT22;18004;48.416;10.066;2023-02-02T07:49:30;4.00;99.90
31369;DHT22;18004;48.416;10.066;2023-02-02T07:51:56;4.00;99.90
31369;DHT22;18004;48.416;10.066;2023-02-02T07:54:22;4.00;99.90
31369;DHT22;18004;48.416;10.066;2023-02-02T07:56:48;4.00;99.90
31369;DHT22;18004;48.416;10.066;2023-02-02T07:59:13;3.90;99.90
31369;DHT22;18004;48.416;10.066;2023-02-02T08:01:39;3.90;99.90
31369;DHT22;18004;48.416;10.066;2023-02-02T08:04:05;3.90;99.90
31369;DHT22;18004;48.416;10.066;2023-02-02T08:06:31;3.90;99.90
31369;DHT22;18004;48.416;10.066;2023-02-02T08:08:57;3.90;99.90
31369;DHT22;18004;48.416;10.066;2023-02-02T08:11:24;4.00;99.90
31369;DHT22;18004;48.416;10.066;2023-02-02T08:13:50;4.00;99.90
31369;DHT22;18004;48.416;10.066;2023-02-02T08:16:17;4.00;99.90
31369;DHT22;18004;48.416;10.066;2023-02-02T08:18:42;4.00;99.90
31369;DHT22;18004;48.416;10.066;2023-02-02T08:21:08;4.00;99.90
31369;DHT22;18004;48.416;10.066;2023-02-02T08:23:34;4.10;99.90
31369;DHT22;18004;48.416;10.066;2023-02-02T08:26:20;4.00;99.90
31369;DHT22;18004;48.416;10.066;2023-02-02T08:28:47;4.10;99.90
31369;DHT22;18004;48.416;10.066;2023-02-02T08:31:14;4.00;99.90
31369;DHT22;18004;48.416;10.066;2023-02-02T08:33:40;4.00;99.90
31369;DHT22;18004;48.416;10.066;2023-02-02T08:36:13;4.10;99.90
31369;DHT22;18004;48.416;10.066;2023-02-02T08:38:39;4.10;99.90
31369;DHT22;18004;48.416;10.066;2023-02-02T08:41:05;4.10;99.90
31369;DHT22;18004;48.416;10.066;2023-02-02T08:43:31;4.20;99.90
31369;DHT22;18004;48.416;10.066;2023-02-02T08:45:57;4.20;99.90
31369;DHT22;18004;48.416;10.066;2023-02-02T08:48:22;4.20;99.90
31369;DHT22;18004;48.416;10.066;2023-02-02T08:50:52;4.20;99.90
31369;DHT22;18004;48.416;10.066;2023-02-02T08:53:18;4.20;99.90
31369;DHT22;18004;48.416;10.066;2023-02-02T08:55:44;4.20;99.90
31369;DHT22;18004;48.416;10.066;2023-02-02T08:58:09;4.20;99.90
31369;DHT22;18004;48.416;10.066;2023-02-02T09:00:35;4.30;99.90
31369;DHT22;18004;48.416;10.066;2023-02-02T09:03:01;4.30;99.90
31369;DHT22;18004;48.416;10.066;2023-02-02T09:05:26;4.40;99.90
31369;DHT22;18004;48.416;10.066;2023-02-02T09:07:52;4.40;99.90
31369;DHT22;18004;48.416;10.066;2023-02-02T09:10:18;4.40;99.90
31369;DHT22;18004;48.416;10.066;2023-02-02T09:12:43;4.50;99.90
31369;DHT22;18004;48.416;10.066;2023-02-02T09:15:09;4.50;99.90
31369;DHT22;18004;48.416;10.066;2023-02-02T09:17:36;4.50;99.90
31369;DHT22;18004;48.416;10.066;2023-02-02T09:20:02;4.60;99.90
31369;DHT22;18004;48.416;10.066;2023-02-02T09:22:28;4.60;99.90
31369;DHT22;18004;48.416;10.066;2023-02-02T09:24:53;4.70;99.90
31369;DHT22;18004;48.416;10.066;2023-02-02T09:27:19;4.70;99.90
31369;DHT22;18004;48.416;10.066;2023-02-02T09:29:48;4.70;99.90
31369;DHT22;18004;48.416;10.066;2023-02-02T09:32:14;4.70;99.90
31369;DHT22;18004;48.416;10.066;2023-02-02T09:34:39;4.70;99.90
31369;DHT22;18004;48.416;10.066;2023-02-02T09:37:05;4.60;99.90
31369;DHT22;18004;48.416;10.066;2023-02-02T09:39:30;4.60;99.90
31369;DHT22;18004;48.416;10.066;2023-02-02T09:42:08;4.60;99.90
31369;DHT22;18004;48.416;10.066;2023-02-02T09:44:45;4.60;99.90
31369;DHT22;18004;48.416;10.066;2023-02-02T09:52:10;4.60;99.90
31369;DHT22;18004;48.416;10.066;2023-02-02T09:54:47;4.60;99.90
31369;DHT22;18004;48.416;10.066;2023-02-02T09:57:18;4.60;99.90
31369;DHT22;18004;48.416;10.066;2023-02-02T09:59:45;4.60;99.90
31369;DHT22;18004;48.416;10.066;2023-02-02T10:02:22;4.60;99.90
31369;DHT22;18004;48.416;10.066;2023-02-02T10:04:50;4.60;99.90
31369;DHT22;18004;48.416;10.066;2023-02-02T10:07:26;4.60;99.90
31369;DHT22;18004;48.416;10.066;2023-02-02T10:22:37;4.70;99.90
31369;DHT22;18004;48.416;10.066;2023-02-02T10:25:03;4.70;99.90
31369;DHT22;18004;48.416;10.066;2023-02-02T10:27:34;4.80;99.90
31369;DHT22;18004;48.416;10.066;2023-02-02T10:30:01;4.80;99.90
31369;DHT22;18004;48.416;10.066;2023-02-02T10:32:36;4.80;99.90
31369;DHT22;18004;48.416;10.066;2023-02-02T10:43:12;5.00;99.90
31369;DHT22;18004;48.416;10.066;2023-02-02T10:46:02;5.10;99.90
31369;DHT22;18004;48.416;10.066;2023-02-02T10:48:29;5.10;99.90
31369;DHT22;18004;48.416;10.066;2023-02-02T10:54:04;5.20;99.90
31369;DHT22;18004;48.416;10.066;2023-02-02T10:56:40;5.20;99.90
31369;DHT22;18004;48.416;10.066;2023-02-02T10:59:14;5.20;99.90
31369;DHT22;18004;48.416;10.066;2023-02-02T11:01:42;5.20;99.90
31369;DHT22;18004;48.416;10.066;2023-02-02T11:04:09;5.30;99.90
31369;DHT22;18004;48.416;10.066;2023-02-02T11:06:53;5.30;99.90
31369;DHT22;18004;48.416;10.066;2023-02-02T11:09:23;5.30;99.90
31369;DHT22;18004;48.416;10.066;2023-02-02T11:11:54;5.40;99.90
31369;DHT22;18004;48.416;10.066;2023-02-02T11:14:33;5.40;99.90
31369;DHT22;18004;48.416;10.066;2023-02-02T11:17:05;5.40;99.90
31369;DHT22;18004;48.416;10.066;2023-02-02T11:19:34;5.30;99.90
31369;DHT22;18004;48.416;10.066;2023-02-02T11:22:01;5.30;99.90
31369;DHT22;18004;48.416;10.066;2023-02-02T11:24:28;5.30;99.90
31369;DHT22;18004;48.416;10.066;2023-02-02T11:27:05;5.20;99.90
31369;DHT22;18004;48.416;10.066;2023-02-02T11:32:16;5.20;99.90
31369;DHT22;18004;48.416;10.066;2023-02-02T11:34:42;5.30;99.90
31369;DHT22;18004;48.416;10.066;2023-02-02T11:37:20;5.30;99.90
31369;DHT22;18004;48.416;10.066;2023-02-02T11:39:46;5.40;99.90
31369;DHT22;18004;48.416;10.066;2023-02-02T11:42:13;5.30;99.90
31369;DHT22;18004;48.416;10.066;2023-02-02T11:47:24;5.20;99.90
31369;DHT22;18004;48.416;10.066;2023-02-02T11:49:51;5.30;99.90
31369;DHT22;18004;48.416;10.066;2023-02-02T11:52:18;5.30;99.90
31369;DHT22;18004;48.416;10.066;2023-02-02T11:54:51;5.30;99.90
31369;DHT22;18004;48.416;10.066;2023-02-02T11:57:19;5.30;99.90
31369;DHT22;18004;48.416;10.066;2023-02-02T11:59:46;5.30;99.90
31369;DHT22;18004;48.416;10.066;2023-02-02T12:04:47;5.30;99.90
31369;DHT22;18004;48.416;10.066;2023-02-02T12:07:31;5.30;99.90
31369;DHT22;18004;48.416;10.066;2023-02-02T12:10:03;5.20;99.90
31369;DHT22;18004;48.416;10.066;2023-02-02T12:12:44;5.20;99.90
31369;DHT22;18004;48.416;10.066;2023-02-02T12:17:51;5.30;99.90
31369;DHT22;18004;48.416;10.066;2023-02-02T12:20:38;5.30;99.90
31369;DHT22;18004;48.416;10.066;2023-02-02T12:44:10;5.40;99.90
31369;DHT22;18004;48.416;10.066;2023-02-02T12:47:23;5.40;99.90
31369;DHT22;18004;48.416;10.066;2023-02-02T12:57:17;5.50;99.90
31369;DHT22;18004;48.416;10.066;2023-02-02T13:02:29;5.50;99.90
31369;DHT22;18004;48.416;10.066;2023-02-02T13:10:36;5.50;99.90
31369;DHT22;18004;48.416;10.066;2023-02-02T13:13:00;5.50;99.90
31369;DHT22;18004;48.416;10.066;2023-02-02T13:15:34;5.60;99.90
31369;DHT22;18004;48.416;10.066;2023-02-02T13:18:01;5.50;99.90
31369;DHT22;18004;48.416;10.066;2023-02-02T13:20:44;5.50;99.90
31369;DHT22;18004;48.416;10.066;2023-02-02T13:23:12;5.50;99.90
31369;DHT22;18004;48.416;10.066;2023-02-02T13:25:50;5.50;99.90
31369;DHT22;18004;48.416;10.066;2023-02-02T13:28:30;5.50;99.90
31369;DHT22;18004;48.416;10.066;2023-02-02T13:30:58;5.50;99.90
31369;DHT22;18004;48.416;10.066;2023-02-02T13:33:31;5.50;99.90
31369;DHT22;18004;48.416;10.066;2023-02-02T13:36:17;5.50;99.90
31369;DHT22;18004;48.416;10.066;2023-02-02T13:38:52;5.50;99.90
31369;DHT22;18004;48.416;10.066;2023-02-02T13:41:19;5.50;99.90
31369;DHT22;18004;48.416;10.066;2023-02-02T13:48:49;5.50;99.90
31369;DHT22;18004;48.416;10.066;2023-02-02T14:01:39;5.40;99.90
31369;DHT22;18004;48.416;10.066;2023-02-02T14:04:15;5.50;99.90
31369;DHT22;18004;48.416;10.066;2023-02-02T14:06:53;5.50;99.90
31369;DHT22;18004;48.416;10.066;2023-02-02T14:09:21;5.50;99.90
31369;DHT22;18004;48.416;10.066;2023-02-02T14:11:52;5.50;99.90
31369;DHT22;18004;48.416;10.066;2023-02-02T14:14:20;5.40;99.90
31369;DHT22;18004;48.416;10.066;2023-02-02T14:17:07;5.40;99.90
31369;DHT22;18004;48.416;10.066;2023-02-02T14:22:18;5.30;99.90
31369;DHT22;18004;48.416;10.066;2023-02-02T14:24:50;5.40;99.90
31369;DHT22;18004;48.416;10.066;2023-02-02T14:34:54;5.30;99.90
31369;DHT22;18004;48.416;10.066;2023-02-02T14:42:59;5.30;99.90
31369;DHT22;18004;48.416;10.066;2023-02-02T14:48:36;5.30;99.90
31369;DHT22;18004;48.416;10.066;2023-02-02T14:51:13;5.20;99.90
31369;DHT22;18004;48.416;10.066;2023-02-02T14:53:41;5.20;99.90
31369;DHT22;18004;48.416;10.066;2023-02-02T14:56:13;5.20;99.90
31369;DHT22;18004;48.416;10.066;2023-02-02T14:58:59;5.20;99.90
31369;DHT22;18004;48.416;10.066;2023-02-02T15:01:27;5.20;99.90
31369;DHT22;18004;48.416;10.066;2023-02-02T15:03:54;5.10;99.90
31369;DHT22;18004;48.416;10.066;2023-02-02T15:06:25;5.10;99.90
31369;DHT22;18004;48.416;10.066;2023-02-02T15:12:22;5.10;99.90
31369;DHT22;18004;48.416;10.066;2023-02-02T15:14:22;5.10;99.90
31369;DHT22;18004;48.416;10.066;2023-02-02T15:16:49;5.10;99.90
31369;DHT22;18004;48.416;10.066;2023-02-02T15:20:05;5.10;99.90
31369;DHT22;18004;48.416;10.066;2023-02-02T15:24:49;5.00;99.90
31369;DHT22;18004;48.416;10.066;2023-02-02T15:27:16;5.10;99.90
31369;DHT22;18004;48.416;10.066;2023-02-02T15:29:43;5.10;99.90
31369;DHT22;18004;48.416;10.066;2023-02-02T15:32:14;5.10;99.90
31369;DHT22;18004;48.416;10.066;2023-02-02T15:34:42;5.10;99.90
31369;DHT22;18004;48.416;10.066;2023-02-02T15:37:12;5.10;99.90
31369;DHT22;18004;48.416;10.066;2023-02-02T15:39:39;5.10;99.90
31369;DHT22;18004;48.416;10.066;2023-02-02T15:42:16;5.10;99.90
31369;DHT22;18004;48.416;10.066;2023-02-02T15:45:02;5.10;99.90
31369;DHT22;18004;48.416;10.066;2023-02-02T15:47:29;5.10;99.90
31369;DHT22;18004;48.416;10.066;2023-02-02T15:49:55;5.10;99.90
31369;DHT22;18004;48.416;10.066;2023-02-02T15:52:31;5.10;99.90
31369;DHT22;18004;48.416;10.066;2023-02-02T15:54:59;5.00;99.90
31369;DHT22;18004;48.416;10.066;2023-02-02T15:57:30;5.00;99.90
31369;DHT22;18004;48.416;10.066;2023-02-02T15:59:56;5.00;99.90
31369;DHT22;18004;48.416;10.066;2023-02-02T16:02:30;5.00;99.90
31369;DHT22;18004;48.416;10.066;2023-02-02T16:04:58;5.10;99.90
31369;DHT22;18004;48.416;10.066;2023-02-02T16:07:28;5.10;99.90
31369;DHT22;18004;48.416;10.066;2023-02-02T16:09:53;5.10;99.90
31369;DHT22;18004;48.416;10.066;2023-02-02T16:12:20;5.10;99.90
31369;DHT22;18004;48.416;10.066;2023-02-02T16:14:51;5.10;99.90
31369;DHT22;18004;48.416;10.066;2023-02-02T16:17:21;5.10;99.90
31369;DHT22;18004;48.416;10.066;2023-02-02T16:20:03;5.10;99.90
31369;DHT22;18004;48.416;10.066;2023-02-02T16:22:32;5.00;99.90
31369;DHT22;18004;48.416;10.066;2023-02-02T16:25:00;5.00;99.90
31369;DHT22;18004;48.416;10.066;2023-02-02T16:27:28;5.00;99.90
31369;DHT22;18004;48.416;10.066;2023-02-02T16:29:54;5.10;99.90
31369;DHT22;18004;48.416;10.066;2023-02-02T16:34:51;5.10;99.90
31369;DHT22;18004;48.416;10.066;2023-02-02T16:37:21;5.10;99.90
31369;DHT22;18004;48.416;10.066;2023-02-02T16:39:47;5.10;99.90
31369;DHT22;18004;48.416;10.066;2023-02-02T16:44:47;5.10;99.90
31369;DHT22;18004;48.416;10.066;2023-02-02T16:49:51;5.10;99.90
31369;DHT22;18004;48.416;10.066;2023-02-02T16:52:20;5.10;99.90
31369;DHT22;18004;48.416;10.066;2023-02-02T16:55:04;5.10;99.90
31369;DHT22;18004;48.416;10.066;2023-02-02T16:57:33;5.10;99.90
31369;DHT22;18004;48.416;10.066;2023-02-02T16:59:59;5.10;99.90
31369;DHT22;18004;48.416;10.066;2023-02-02T17:04:54;5.10;99.90
31369;DHT22;18004;48.416;10.066;2023-02-02T17:07:20;5.00;99.90
31369;DHT22;18004;48.416;10.066;2023-02-02T17:09:47;5.00;99.90
31369;DHT22;18004;48.416;10.066;2023-02-02T17:17:16;5.00;99.90
31369;DHT22;18004;48.416;10.066;2023-02-02T17:19:42;5.00;99.90
31369;DHT22;18004;48.416;10.066;2023-02-02T17:22:08;5.00;99.90
31369;DHT22;18004;48.416;10.066;2023-02-02T17:24:34;4.90;99.90
31369;DHT22;18004;48.416;10.066;2023-02-02T17:27:00;4.90;99.90
31369;DHT22;18004;48.416;10.066;2023-02-02T17:29:26;4.90;99.90
31369;DHT22;18004;48.416;10.066;2023-02-02T17:31:51;4.90;99.90
31369;DHT22;18004;48.416;10.066;2023-02-02T17:34:18;4.90;99.90
31369;DHT22;18004;48.416;10.066;2023-02-02T17:36:43;4.90;99.90
31369;DHT22;18004;48.416;10.066;2023-02-02T17:39:09;4.90;99.90
31369;DHT22;18004;48.416;10.066;2023-02-02T17:41:35;4.90;99.90
31369;DHT22;18004;48.416;10.066;2023-02-02T17:44:01;4.90;99.90
31369;DHT22;18004;48.416;10.066;2023-02-02T17:46:30;4.90;99.90
31369;DHT22;18004;48.416;10.066;2023-02-02T17:48:56;4.80;99.90
31369;DHT22;18004;48.416;10.066;2023-02-02T17:51:22;4.80;99.90
31369;DHT22;18004;48.416;10.066;2023-02-02T17:53:47;4.80;99.90
31369;DHT22;18004;48.416;10.066;2023-02-02T17:56:13;4.80;99.90
31369;DHT22;18004;48.416;10.066;2023-02-02T17:58:39;4.80;99.90
31369;DHT22;18004;48.416;10.066;2023-02-02T18:01:05;4.80;99.90
31369;DHT22;18004;48.416;10.066;2023-02-02T18:03:34;4.70;99.90
31369;DHT22;18004;48.416;10.066;2023-02-02T18:06:02;4.70;99.90
31369;DHT22;18004;48.416;10.066;2023-02-02T18:08:28;4.70;99.90
31369;DHT22;18004;48.416;10.066;2023-02-02T18:10:54;4.70;99.90